Home > Products > Valid Products > TAF

000
FTUS42 KJAX 301730
TAFCRG
TAF
KCRG 301730Z 3018/3118 32013G18KT P6SM FEW250
     FM302100 34010KT P6SM FEW250
     FM310000 35006KT P6SM FEW250
     FM311500 04010KT P6SM FEW030 SCT250=



000
FTUS42 KJAX 301730
TAFGNV
TAF
KGNV 301730Z 3018/3118 34010KT P6SM SCT250
     FM310000 35004KT P6SM FEW250
     FM311500 04008KT P6SM SCT250=



000
FTUS42 KJAX 301730
TAFJAX
TAF
KJAX 301730Z 3018/3118 31012G19KT P6SM FEW250
     FM302100 34010KT P6SM FEW250
     FM310000 35004KT P6SM FEW250
     FM311500 04010KT P6SM FEW030 SCT250=



000
FTUS42 KJAX 301730
TAFSSI
TAF
KSSI 301730Z 3018/3118 31010G19KT P6SM SKC
     FM302300 36007KT P6SM FEW250
     FM311300 04009KT P6SM SCT250=



000
FTUS42 KJAX 301416 AAA
TAFSSI
TAF AMD
KSSI 301416Z 3014/3112 31010KT P6SM FEW020 SCT250
     FM301800 33010KT P6SM FEW250
     FM310000 35003KT P6SM FEW250=



000
FTUS42 KJAX 301416 AAA
TAFCRG
TAF AMD
KCRG 301416Z 3014/3112 29011KT P6SM SCT015 OVC200
      TEMPO 3014/3016 BKN015
     FM301600 33011G18KT P6SM FEW030 BKN250
     FM302000 34010KT P6SM FEW250
     FM310000 35006KT P6SM FEW250=



000
FTUS42 KJAX 301416 AAA
TAFJAX
TAF AMD
KJAX 301416Z 3014/3112 29011KT P6SM SCT015 OVC200
      TEMPO 3014/3016 BKN015
     FM301600 33011G18KT P6SM FEW030 BKN250
     FM301900 34010KT P6SM FEW250
     FM310000 35004KT P6SM FEW250=



000
FTUS42 KJAX 301416 AAA
TAFGNV
TAF AMD
KGNV 301416Z 3014/3112 28009KT P6SM SCT015 BKN050 WS015/29035KT
      TEMPO 3014/3016 BKN015
     FM301600 33012G18KT P6SM SCT020 BKN250
     FM301900 34010KT P6SM FEW250
     FM310000 01006KT P6SM FEW250=



000
FTUS42 KJAX 301134
TAFSSI
TAF
KSSI 301134Z 3012/3112 25007KT P6SM SCT020 BKN040 WS015/30035KT
      TEMPO 3012/3014 BKN020
     FM301400 32012G20KT P6SM FEW020 BKN250
     FM301800 34010KT P6SM FEW250
     FM310000 35003KT P6SM FEW250=



000
FTUS42 KJAX 301134
TAFGNV
TAF
KGNV 301134Z 3012/3112 25006KT P6SM SCT010 BKN040 WS015/29035KT
      TEMPO 3012/3015 3SM BR SCT008 BKN020
     FM301500 33012G18KT P6SM SCT020 BKN250
     FM301800 34010KT P6SM FEW250
     FM310000 01006KT P6SM FEW250=



000
FTUS42 KJAX 301134
TAFJAX
TAF
KJAX 301134Z 3012/3112 25007KT P6SM SCT020 BKN040 WS015/30035KT
      TEMPO 3012/3014 BKN020
     FM301400 32012G20KT P6SM FEW020 BKN250
     FM301800 34010KT P6SM FEW250
     FM310000 35004KT P6SM FEW250=



000
FTUS42 KJAX 301134
TAFCRG
TAF
KCRG 301134Z 3012/3112 24007KT P6SM SCT020 BKN040 WS015/30035KT
      TEMPO 3012/3014 BKN020
     FM301400 32012G20KT P6SM FEW020 BKN250
     FM301800 34010KT P6SM FEW250
     FM310000 35006KT P6SM FEW250=



000
FTUS42 KJAX 300540
TAFGNV
TAF
KGNV 300540Z 3006/3106 25005KT P6SM SCT100 BKN250
     FM301200 27008KT P6SM SCT010 BKN040
      TEMPO 3012/3015 SCT008 BKN015
     FM301500 33012G18KT P6SM SCT020 BKN250
     FM301800 33010KT P6SM FEW250=



000
FTUS42 KJAX 300540
TAFSSI
TAF
KSSI 300540Z 3006/3106 25007KT P6SM SCT100 BKN250
     FM301000 25008KT P6SM SCT020 BKN040 WS015/29035KT
      TEMPO 3011/3014 BKN020
     FM301400 32012G20KT P6SM FEW020 BKN250
     FM301800 33010KT P6SM FEW250=



000
FTUS42 KJAX 300540
TAFCRG
TAF
KCRG 300540Z 3006/3106 24006KT P6SM SCT100 BKN250
     FM301000 25007KT P6SM SCT020 BKN040 WS015/29035KT
      TEMPO 3011/3014 BKN020
     FM301400 32012G20KT P6SM FEW020 BKN250
     FM301800 33010KT P6SM FEW250=



000
FTUS42 KJAX 300540
TAFJAX
TAF
KJAX 300540Z 3006/3106 25006KT P6SM SCT100 BKN250
     FM301000 25007KT P6SM SCT020 BKN040 WS015/29035KT
      TEMPO 3011/3014 BKN020
     FM301400 32012G20KT P6SM FEW020 BKN250
     FM301800 33010KT P6SM FEW250=



000
FTUS42 KJAX 292347
TAFSSI
TAF
KSSI 292347Z 3000/3024 13005KT P6SM FEW100 BKN250
     FM300200 20005KT P6SM BKN250
     FM300900 25008KT P6SM SCT050 BKN100 OVC250
     FM301100 26010KT P6SM VCSH BKN020 OVC050
     FM301600 31012G20KT P6SM SCT250
     FM302200 33008KT P6SM SKC=



000
FTUS42 KJAX 292347
TAFJAX
TAF
KJAX 292347Z 3000/3024 15005KT P6SM FEW120 BKN250
     FM300200 22003KT P6SM SCT100 OVC250
     FM301200 27011KT P6SM VCSH BKN020 OVC050
     FM301700 32012G20KT P6SM SCT250
     FM302200 33008KT P6SM FEW250=



000
FTUS42 KJAX 292347
TAFGNV
TAF
KGNV 292347Z 3000/3024 24004KT P6SM BKN250
     FM301000 27003KT 5SM BR SCT025 OVC050
     FM301200 28010KT P6SM VCSH BKN015 OVC040
     FM301800 32012G18KT P6SM SCT250=



000
FTUS42 KJAX 292347
TAFCRG
TAF
KCRG 292347Z 3000/3024 11004KT P6SM FEW100 BKN250
     FM300200 22003KT P6SM SCT100 OVC250
     FM301200 27011KT P6SM VCSH BKN020 OVC050
     FM301700 32012G20KT P6SM SCT250
     FM302200 33008KT P6SM FEW250=



000
FTUS42 KJAX 291721
TAFSSI
TAF
KSSI 291721Z 2918/3018 09004KT P6SM BKN250
     FM291900 13006KT P6SM BKN250
     FM300200 20005KT P6SM BKN250
     FM300900 24007KT P6SM BKN100 OVC250
     FM301100 26009KT P6SM BKN025 OVC050
     FM301200 27010G17KT P6SM VCSH OVC015
     FM301500 30012G19KT P6SM BKN025=



000
FTUS42 KJAX 291721
TAFCRG
TAF
KCRG 291721Z 2918/3018 VRB04KT P6SM BKN250
     FM291900 16006KT P6SM SCT050 BKN250
     FM300000 21003KT P6SM BKN250
     FM301000 25005KT P6SM BKN100 OVC250
     FM301200 27007KT P6SM BKN025 OVC050
     FM301300 29010KT P6SM VCSH OVC015
     FM301600 31012G19KT P6SM BKN025=



000
FTUS42 KJAX 291721
TAFGNV
TAF
KGNV 291721Z 2918/3018 12005KT P6SM SCT250
     FM291900 17005KT P6SM BKN250
     FM292100 21006KT P6SM BKN250
     FM300100 24003KT P6SM BKN250
     FM301000 28003KT 5SM BR SCT025 OVC050
     FM301230 28004KT P6SM OVC015
     FM301700 31012G18KT P6SM BKN025=



000
FTUS42 KJAX 291721
TAFJAX
TAF
KJAX 291721Z 2918/3018 VRB04KT P6SM BKN250
     FM291900 17006KT P6SM FEW050 BKN250
     FM300000 21003KT P6SM BKN250
     FM301000 24005KT P6SM BKN100 OVC250
     FM301200 27007KT P6SM BKN025 OVC050
     FM301300 30010KT P6SM VCSH OVC015
     FM301600 31012G19KT P6SM BKN025=



000
FTUS42 KJAX 291604 AAB
TAFJAX
TAF AMD
KJAX 291604Z 2916/3012 VRB04KT P6SM BKN250
     FM291800 17006KT P6SM FEW050 BKN250
     FM300000 21003KT P6SM BKN250
     FM301000 24005KT P6SM BKN100 OVC250=



000
FTUS42 KJAX 291603 AAA
TAFCRG
TAF AMD
KCRG 291603Z 2916/3012 VRB05KT P6SM BKN250
     FM291900 16006KT P6SM SCT050 BKN250
     FM300000 21003KT P6SM BKN250
     FM301000 25005KT P6SM BKN100 OVC250=



000
FTUS42 KJAX 291600 AAA
TAFGNV
TAF AMD
KGNV 291600Z 2916/3012 VRB04KT P6SM SCT250
     FM291800 13007KT P6SM BKN250
     FM292100 21006KT P6SM BKN250
     FM300100 24003KT P6SM BKN250
     FM301000 28003KT 5SM BR SCT025 OVC050=



000
FTUS42 KJAX 291558 AAA
TAFSSI
TAF AMD
KSSI 291558Z 2916/3012 VRB04KT P6SM BKN250
     FM291800 13007KT P6SM BKN250
     FM300200 20005KT P6SM BKN250
     FM300900 24007KT P6SM BKN100 OVC250
     FM301100 26009KT P6SM BKN025 OVC050=



000
FTUS42 KJAX 291120
TAFCRG
TAF
KCRG 291120Z 2912/3012 00000KT P6SM SCT250
     FM291500 05006KT P6SM SCT250
     FM291800 14007KT P6SM SCT035 BKN250
     FM300000 20005KT P6SM BKN250=



000
FTUS42 KJAX 291120
TAFSSI
TAF
KSSI 291120Z 2912/3012 00000KT P6SM SCT250
     FM291500 05006KT P6SM SCT250
     FM291800 14007KT P6SM SCT035 BKN250
     FM300000 20005KT P6SM BKN250=



000
FTUS42 KJAX 291120
TAFGNV
TAF
KGNV 291120Z 2912/3012 00000KT P6SM SCT250
     FM291500 05006KT P6SM SCT250
     FM291800 14007KT P6SM SCT035 BKN250
     FM300000 20005KT P6SM BKN250=



000
FTUS42 KJAX 291120
TAFJAX
TAF
KJAX 291120Z 2912/3012 00000KT P6SM SCT250
     FM291500 05006KT P6SM SCT250
     FM291800 14007KT P6SM SCT035 BKN250
     FM300000 20005KT P6SM BKN250=



000
FTUS42 KJAX 290520
TAFCRG
TAF
KCRG 290520Z 2906/3006 00000KT P6SM SKC
     FM291500 05006KT P6SM SCT250
     FM291800 14007KT P6SM SCT035 BKN250
     FM300000 20005KT P6SM BKN250=



000
FTUS42 KJAX 290520
TAFJAX
TAF
KJAX 290520Z 2906/3006 00000KT P6SM SKC
     FM291500 05006KT P6SM SCT250
     FM291800 14007KT P6SM SCT035 BKN250
     FM300000 20005KT P6SM BKN250=



000
FTUS42 KJAX 290520
TAFGNV
TAF
KGNV 290520Z 2906/3006 00000KT P6SM SKC
     FM291500 05006KT P6SM SCT250
     FM291800 14007KT P6SM SCT035 BKN250
     FM300000 20005KT P6SM BKN250=



000
FTUS42 KJAX 290520
TAFSSI
TAF
KSSI 290520Z 2906/3006 00000KT P6SM SKC
     FM291500 05006KT P6SM SCT250
     FM291800 14007KT P6SM SCT035 BKN250
     FM300000 20005KT P6SM BKN250=



000
FTUS42 KJAX 282341
TAFCRG
TAF
KCRG 282341Z 2900/2924 VRB03KT P6SM SKC
     FM291600 05007KT P6SM SKC
     FM291800 13006KT P6SM SCT035 SCT250=



000
FTUS42 KJAX 282341
TAFGNV
TAF
KGNV 282341Z 2900/2924 VRB03KT P6SM SKC
     FM291600 07006KT P6SM SKC
     FM291800 13006KT P6SM FEW035 SCT250=



000
FTUS42 KJAX 282341
TAFJAX
TAF
KJAX 282341Z 2900/2924 VRB03KT P6SM SKC
     FM291600 05006KT P6SM SKC
     FM291800 14006KT P6SM FEW035 SCT250=



000
FTUS42 KJAX 282341
TAFSSI
TAF
KSSI 282341Z 2900/2924 VRB03KT P6SM SKC
     FM291600 06007KT P6SM SKC
     FM291800 11007KT P6SM SCT250=



000
FTUS42 KJAX 282036 AAA
TAFSSI
TAF AMD
KSSI 282036Z 2821/2918 VRB05KT P6SM SKC
     FM290000 03003KT P6SM SKC
     FM291600 06007KT P6SM SKC=



000
FTUS42 KJAX 282036 AAB
TAFJAX
TAF AMD
KJAX 282036Z 2821/2918 06008KT P6SM SKC
     FM290000 VRB03KT P6SM SKC
     FM291600 05006KT P6SM SKC=



000
FTUS42 KJAX 281903 AAA
TAFCRG
TAF AMD
KCRG 281903Z 2819/2918 05008KT P6SM SKC
     FM290000 VRB03KT P6SM SKC
     FM291600 05007KT P6SM SKC=



000
FTUS42 KJAX 281730
TAFSSI
TAF
KSSI 281730Z 2818/2918 03008KT P6SM FEW040
     FM290000 03003KT P6SM SKC
     FM291600 06007KT P6SM SKC=



000
FTUS42 KJAX 281730
TAFCRG
TAF
KCRG 281730Z 2818/2918 02008KT P6SM FEW040
     FM290000 VRB03KT P6SM SKC
     FM291600 05007KT P6SM SKC=



000
FTUS42 KJAX 281730
TAFGNV
TAF
KGNV 281730Z 2818/2918 02008KT P6SM FEW040
     FM290000 VRB03KT P6SM SKC
     FM291600 07006KT P6SM SKC=



000
FTUS42 KJAX 281730
TAFJAX
TAF
KJAX 281730Z 2818/2918 03010KT P6SM FEW040
     FM290000 VRB03KT P6SM SKC
     FM291600 05006KT P6SM SKC=



000
FTUS42 KJAX 281308 AAA
TAFCRG
TAF AMD
KCRG 281308Z 2813/2912 36008KT P6SM SKC
     FM281500 02010KT P6SM SCT045
     FM290000 00000KT P6SM SKC=



000
FTUS42 KJAX 281307 AAB
TAFJAX
TAF AMD
KJAX 281307Z 2813/2912 36007KT P6SM SKC
     FM281500 02010KT P6SM SCT045
     FM290000 00000KT P6SM SKC=



000
FTUS42 KJAX 281305 AAA
TAFSSI
TAF AMD
KSSI 281305Z 2813/2912 35008KT P6SM SKC
     FM281500 02010KT P6SM SCT045
     FM290000 00000KT P6SM SKC=



000
FTUS42 KJAX 281304 AAA
TAFGNV
TAF AMD
KGNV 281304Z 2813/2912 34005KT P6SM SKC
     FM281500 02007KT P6SM SCT045
     FM290000 00000KT P6SM SKC=



000
FTUS42 KJAX 281120
TAFSSI
TAF
KSSI 281120Z 2812/2912 30003KT P6SM SKC
     FM281500 02010KT P6SM SCT045
     FM290000 00000KT P6SM SKC=



000
FTUS42 KJAX 281120
TAFGNV
TAF
KGNV 281120Z 2812/2912 00000KT P6SM SKC
     FM281500 02007KT P6SM SCT045
     FM290000 00000KT P6SM SKC=



000
FTUS42 KJAX 281120
TAFCRG
TAF
KCRG 281120Z 2812/2912 32003KT P6SM SKC
     FM281500 02010KT P6SM SCT045
     FM290000 00000KT P6SM SKC=



000
FTUS42 KJAX 281120
TAFJAX
TAF
KJAX 281120Z 2812/2912 32003KT P6SM SKC
     FM281500 02010KT P6SM SCT045
     FM290000 00000KT P6SM SKC=



000
FTUS42 KJAX 280520
TAFSSI
TAF
KSSI 280520Z 2806/2906 30003KT P6SM SKC
     FM281500 02010KT P6SM SCT045
     FM282300 03003KT P6SM SKC=



000
FTUS42 KJAX 280520
TAFJAX
TAF
KJAX 280520Z 2806/2906 32003KT P6SM SKC
     FM281500 02010KT P6SM SCT045
     FM282300 03003KT P6SM SKC=



000
FTUS42 KJAX 280520
TAFSSI
TAF
KSSI 280520Z 2806/2906 30003KT P6SM SKC
     FM281500 02010KT P6SM SKC
     FM282300 03003KT P6SM SKC=



000
FTUS42 KJAX 280520
TAFCRG
TAF
KCRG 280520Z 2806/2906 32003KT P6SM SKC
     FM281500 02010KT P6SM SCT045
     FM282300 03003KT P6SM SKC=



000
FTUS42 KJAX 280520
TAFGNV
TAF
KGNV 280520Z 2806/2906 00000KT P6SM SKC
     FM281500 02007KT P6SM SCT045
     FM282300 03003KT P6SM SKC=



000
FTUS42 KJAX 272331
TAFCRG
TAF
KCRG 272331Z 2800/2824 33008KT P6SM SKC
     FM281500 02010KT P6SM SKC=



000
FTUS42 KJAX 272331
TAFSSI
TAF
KSSI 272331Z 2800/2824 32007KT P6SM SKC
     FM281400 02010KT P6SM SKC=



000
FTUS42 KJAX 272331
TAFGNV
TAF
KGNV 272331Z 2800/2824 31005KT P6SM SKC
     FM281500 01008KT P6SM SKC=



000
FTUS42 KJAX 272331
TAFJAX
TAF
KJAX 272331Z 2800/2824 32006KT P6SM SKC
     FM281500 02009KT P6SM SKC=



    US Dept of Commerce
    National Oceanic and Atmospheric Administration
    National Weather Service
    1325 East West Highway
    Silver Spring, MD 20910
    Page Author: NWS Internet Services Team
Disclaimer
Information Quality
Credits
Glossary
Privacy Policy
Freedom of Information Act (FOIA)
About Us
Career Opportunities